sensor_id;sensor_type;location;lat;lon;timestamp;P1;durP1;ratioP1;P2;durP2;ratioP2
8476;SDS011;4275;42.854;23.222;2024-02-15T00:01:20;12.73;;;12.33;;
8476;SDS011;4275;42.854;23.222;2024-02-15T00:03:47;12.80;;;12.40;;
8476;SDS011;4275;42.854;23.222;2024-02-15T00:06:15;13.03;;;12.63;;
8476;SDS011;4275;42.854;23.222;2024-02-15T00:08:43;12.73;;;12.33;;
8476;SDS011;4275;42.854;23.222;2024-02-15T00:11:10;12.73;;;12.33;;
8476;SDS011;4275;42.854;23.222;2024-02-15T00:13:39;13.30;;;12.90;;
8476;SDS011;4275;42.854;23.222;2024-02-15T00:16:06;15.90;;;15.40;;
8476;SDS011;4275;42.854;23.222;2024-02-15T00:18:33;15.70;;;15.20;;
8476;SDS011;4275;42.854;23.222;2024-02-15T00:21:00;13.30;;;12.90;;
8476;SDS011;4275;42.854;23.222;2024-02-15T00:23:26;14.13;;;13.63;;
8476;SDS011;4275;42.854;23.222;2024-02-15T00:25:55;14.10;;;13.60;;
8476;SDS011;4275;42.854;23.222;2024-02-15T00:28:22;14.70;;;14.10;;
8476;SDS011;4275;42.854;23.222;2024-02-15T01:24:37;16.30;;;15.60;;
8476;SDS011;4275;42.854;23.222;2024-02-15T01:27:04;15.73;;;15.03;;
8476;SDS011;4275;42.854;23.222;2024-02-15T01:29:32;15.43;;;14.73;;
8476;SDS011;4275;42.854;23.222;2024-02-15T01:38:17;16.20;;;15.40;;
8476;SDS011;4275;42.854;23.222;2024-02-15T01:40:55;15.90;;;15.10;;
8476;SDS011;4275;42.854;23.222;2024-02-15T02:33:57;15.57;;;14.87;;
8476;SDS011;4275;42.854;23.222;2024-02-15T03:19:47;18.80;;;17.90;;
8476;SDS011;4275;42.854;23.222;2024-02-15T03:48:06;14.80;;;14.20;;
8476;SDS011;4275;42.854;23.222;2024-02-15T04:21:53;14.33;;;13.73;;
8476;SDS011;4275;42.854;23.222;2024-02-15T04:31:05;14.33;;;13.83;;
8476;SDS011;4275;42.854;23.222;2024-02-15T04:33:33;14.93;;;14.33;;
8476;SDS011;4275;42.854;23.222;2024-02-15T04:36:00;14.90;;;14.30;;
8476;SDS011;4275;42.854;23.222;2024-02-15T04:38:33;14.27;;;13.77;;
8476;SDS011;4275;42.854;23.222;2024-02-15T04:41:00;14.47;;;13.87;;
8476;SDS011;4275;42.854;23.222;2024-02-15T04:43:29;14.87;;;14.27;;
8476;SDS011;4275;42.854;23.222;2024-02-15T04:45:56;14.50;;;13.90;;
8476;SDS011;4275;42.854;23.222;2024-02-15T04:48:23;14.53;;;13.93;;
8476;SDS011;4275;42.854;23.222;2024-02-15T04:50:50;14.10;;;13.50;;
8476;SDS011;4275;42.854;23.222;2024-02-15T04:53:17;13.57;;;13.07;;
8476;SDS011;4275;42.854;23.222;2024-02-15T04:55:45;14.73;;;14.13;;
8476;SDS011;4275;42.854;23.222;2024-02-15T04:58:12;13.87;;;13.30;;
8476;SDS011;4275;42.854;23.222;2024-02-15T05:00:39;14.30;;;13.70;;
8476;SDS011;4275;42.854;23.222;2024-02-15T05:03:16;13.70;;;13.20;;
8476;SDS011;4275;42.854;23.222;2024-02-15T05:05:43;14.50;;;13.90;;
8476;SDS011;4275;42.854;23.222;2024-02-15T05:08:10;14.30;;;13.70;;
8476;SDS011;4275;42.854;23.222;2024-02-15T05:10:37;14.37;;;13.77;;
8476;SDS011;4275;42.854;23.222;2024-02-15T05:13:05;14.50;;;13.90;;
8476;SDS011;4275;42.854;23.222;2024-02-15T05:15:45;16.27;;;15.57;;
8476;SDS011;4275;42.854;23.222;2024-02-15T05:18:12;15.03;;;14.43;;
8476;SDS011;4275;42.854;23.222;2024-02-15T05:20:38;14.57;;;13.97;;
8476;SDS011;4275;42.854;23.222;2024-02-15T05:23:06;14.13;;;13.53;;
8476;SDS011;4275;42.854;23.222;2024-02-15T05:25:33;14.23;;;13.63;;
8476;SDS011;4275;42.854;23.222;2024-02-15T05:28:00;14.30;;;13.70;;
8476;SDS011;4275;42.854;23.222;2024-02-15T05:30:30;13.53;;;13.03;;
8476;SDS011;4275;42.854;23.222;2024-02-15T05:32:57;14.40;;;13.80;;
8476;SDS011;4275;42.854;23.222;2024-02-15T05:35:25;15.70;;;15.10;;
8476;SDS011;4275;42.854;23.222;2024-02-15T05:37:53;15.30;;;14.70;;
8476;SDS011;4275;42.854;23.222;2024-02-15T05:40:21;14.97;;;14.37;;
8476;SDS011;4275;42.854;23.222;2024-02-15T05:46:10;13.60;;;13.10;;
8476;SDS011;4275;42.854;23.222;2024-02-15T05:48:38;13.40;;;12.90;;
8476;SDS011;4275;42.854;23.222;2024-02-15T05:51:05;13.20;;;12.70;;
8476;SDS011;4275;42.854;23.222;2024-02-15T05:53:33;13.30;;;12.80;;
8476;SDS011;4275;42.854;23.222;2024-02-15T05:56:01;13.53;;;13.03;;
8476;SDS011;4275;42.854;23.222;2024-02-15T05:58:29;13.87;;;13.37;;
8476;SDS011;4275;42.854;23.222;2024-02-15T06:00:56;15.17;;;14.57;;
8476;SDS011;4275;42.854;23.222;2024-02-15T06:03:28;14.83;;;14.23;;
8476;SDS011;4275;42.854;23.222;2024-02-15T06:05:55;15.07;;;14.47;;
8476;SDS011;4275;42.854;23.222;2024-02-15T06:08:24;14.17;;;13.67;;
8476;SDS011;4275;42.854;23.222;2024-02-15T06:10:51;14.20;;;13.60;;
8476;SDS011;4275;42.854;23.222;2024-02-15T06:16:21;13.90;;;13.40;;
8476;SDS011;4275;42.854;23.222;2024-02-15T06:18:49;13.90;;;13.40;;
8476;SDS011;4275;42.854;23.222;2024-02-15T06:21:16;14.80;;;14.20;;
8476;SDS011;4275;42.854;23.222;2024-02-15T06:26:50;15.90;;;15.20;;
8476;SDS011;4275;42.854;23.222;2024-02-15T06:29:22;16.10;;;15.40;;
8476;SDS011;4275;42.854;23.222;2024-02-15T06:32:15;17.83;;;17.03;;
8476;SDS011;4275;42.854;23.222;2024-02-15T06:35:01;17.53;;;16.73;;
8476;SDS011;4275;42.854;23.222;2024-02-15T06:37:45;17.37;;;16.47;;
8476;SDS011;4275;42.854;23.222;2024-02-15T06:40:29;17.87;;;16.90;;
8476;SDS011;4275;42.854;23.222;2024-02-15T06:42:57;18.23;;;17.23;;
8476;SDS011;4275;42.854;23.222;2024-02-15T06:45:24;18.23;;;17.23;;
8476;SDS011;4275;42.854;23.222;2024-02-15T06:47:51;18.17;;;17.13;;
8476;SDS011;4275;42.854;23.222;2024-02-15T06:50:20;19.30;;;18.10;;
8476;SDS011;4275;42.854;23.222;2024-02-15T06:55:41;19.43;;;18.23;;
8476;SDS011;4275;42.854;23.222;2024-02-15T06:58:10;20.27;;;18.97;;
8476;SDS011;4275;42.854;23.222;2024-02-15T07:00:39;20.27;;;18.87;;
8476;SDS011;4275;42.854;23.222;2024-02-15T07:03:06;21.60;;;20.20;;
8476;SDS011;4275;42.854;23.222;2024-02-15T07:05:34;18.27;;;17.07;;
8476;SDS011;4275;42.854;23.222;2024-02-15T07:08:03;18.30;;;17.10;;
8476;SDS011;4275;42.854;23.222;2024-02-15T07:10:31;18.20;;;17.00;;
8476;SDS011;4275;42.854;23.222;2024-02-15T07:12:58;19.90;;;18.60;;
8476;SDS011;4275;42.854;23.222;2024-02-15T07:15:25;20.13;;;18.83;;
8476;SDS011;4275;42.854;23.222;2024-02-15T07:21:15;24.00;;;22.40;;
8476;SDS011;4275;42.854;23.222;2024-02-15T07:23:44;23.37;;;21.77;;
8476;SDS011;4275;42.854;23.222;2024-02-15T07:26:11;23.77;;;22.07;;
8476;SDS011;4275;42.854;23.222;2024-02-15T07:32:01;23.20;;;21.60;;
8476;SDS011;4275;42.854;23.222;2024-02-15T07:34:29;24.07;;;22.33;;
8476;SDS011;4275;42.854;23.222;2024-02-15T07:36:57;23.80;;;22.10;;
8476;SDS011;4275;42.854;23.222;2024-02-15T07:39:24;24.43;;;22.63;;
8476;SDS011;4275;42.854;23.222;2024-02-15T07:41:53;24.47;;;22.57;;
8476;SDS011;4275;42.854;23.222;2024-02-15T07:44:20;24.50;;;22.63;;
8476;SDS011;4275;42.854;23.222;2024-02-15T07:46:47;23.70;;;21.90;;
8476;SDS011;4275;42.854;23.222;2024-02-15T07:49:15;29.93;;;27.77;;
8476;SDS011;4275;42.854;23.222;2024-02-15T07:54:47;23.97;;;22.17;;
8476;SDS011;4275;42.854;23.222;2024-02-15T07:57:14;24.57;;;22.67;;
8476;SDS011;4275;42.854;23.222;2024-02-15T07:59:41;24.90;;;23.00;;
8476;SDS011;4275;42.854;23.222;2024-02-15T08:02:09;23.57;;;21.80;;
8476;SDS011;4275;42.854;23.222;2024-02-15T08:04:37;21.70;;;20.00;;
8476;SDS011;4275;42.854;23.222;2024-02-15T08:07:06;22.97;;;21.17;;
8476;SDS011;4275;42.854;23.222;2024-02-15T08:09:37;22.87;;;21.07;;
8476;SDS011;4275;42.854;23.222;2024-02-15T08:12:04;22.97;;;21.17;;
8476;SDS011;4275;42.854;23.222;2024-02-15T08:14:31;27.53;;;25.43;;
8476;SDS011;4275;42.854;23.222;2024-02-15T08:16:58;27.20;;;25.10;;
8476;SDS011;4275;42.854;23.222;2024-02-15T08:19:26;25.93;;;23.93;;
8476;SDS011;4275;42.854;23.222;2024-02-15T08:21:54;25.63;;;23.63;;
8476;SDS011;4275;42.854;23.222;2024-02-15T08:24:21;26.43;;;24.33;;
8476;SDS011;4275;42.854;23.222;2024-02-15T08:26:49;26.40;;;24.33;;
8476;SDS011;4275;42.854;23.222;2024-02-15T08:29:17;27.67;;;25.47;;
8476;SDS011;4275;42.854;23.222;2024-02-15T08:31:45;27.33;;;25.20;;
8476;SDS011;4275;42.854;23.222;2024-02-15T08:34:14;28.57;;;26.33;;
8476;SDS011;4275;42.854;23.222;2024-02-15T08:36:43;29.93;;;27.53;;
8476;SDS011;4275;42.854;23.222;2024-02-15T08:39:10;28.10;;;25.80;;
8476;SDS011;4275;42.854;23.222;2024-02-15T08:41:37;30.13;;;27.67;;
8476;SDS011;4275;42.854;23.222;2024-02-15T08:44:05;29.07;;;26.77;;
8476;SDS011;4275;42.854;23.222;2024-02-15T08:49:41;29.30;;;26.90;;
8476;SDS011;4275;42.854;23.222;2024-02-15T08:52:08;29.23;;;26.93;;
8476;SDS011;4275;42.854;23.222;2024-02-15T08:54:35;28.00;;;25.70;;
8476;SDS011;4275;42.854;23.222;2024-02-15T08:57:04;30.60;;;28.10;;
8476;SDS011;4275;42.854;23.222;2024-02-15T08:59:32;30.10;;;27.60;;
8476;SDS011;4275;42.854;23.222;2024-02-15T09:01:59;24.73;;;22.57;;
8476;SDS011;4275;42.854;23.222;2024-02-15T09:04:26;24.97;;;22.77;;
8476;SDS011;4275;42.854;23.222;2024-02-15T09:06:54;23.63;;;21.53;;
8476;SDS011;4275;42.854;23.222;2024-02-15T09:12:44;27.30;;;24.90;;
8476;SDS011;4275;42.854;23.222;2024-02-15T09:15:14;26.80;;;24.43;;
8476;SDS011;4275;42.854;23.222;2024-02-15T09:17:41;26.87;;;24.37;;
8476;SDS011;4275;42.854;23.222;2024-02-15T09:20:11;29.53;;;27.13;;
8476;SDS011;4275;42.854;23.222;2024-02-15T09:22:41;27.43;;;25.10;;
8476;SDS011;4275;42.854;23.222;2024-02-15T09:25:08;25.57;;;23.27;;
8476;SDS011;4275;42.854;23.222;2024-02-15T09:27:36;29.13;;;26.73;;
8476;SDS011;4275;42.854;23.222;2024-02-15T09:30:03;28.80;;;26.30;;
8476;SDS011;4275;42.854;23.222;2024-02-15T09:32:35;25.20;;;23.00;;
8476;SDS011;4275;42.854;23.222;2024-02-15T09:35:02;25.80;;;23.50;;
8476;SDS011;4275;42.854;23.222;2024-02-15T09:37:32;28.50;;;26.10;;
8476;SDS011;4275;42.854;23.222;2024-02-15T09:39:59;34.33;;;31.53;;
8476;SDS011;4275;42.854;23.222;2024-02-15T09:42:31;25.50;;;23.30;;
8476;SDS011;4275;42.854;23.222;2024-02-15T09:45:00;28.77;;;26.47;;
8476;SDS011;4275;42.854;23.222;2024-02-15T09:47:30;31.03;;;28.53;;
8476;SDS011;4275;42.854;23.222;2024-02-15T09:50:02;26.35;;;23.95;;
8476;SDS011;4275;42.854;23.222;2024-02-15T09:52:32;26.83;;;24.33;;
8476;SDS011;4275;42.854;23.222;2024-02-15T09:55:02;29.93;;;27.53;;
8476;SDS011;4275;42.854;23.222;2024-02-15T09:57:30;28.97;;;26.57;;
8476;SDS011;4275;42.854;23.222;2024-02-15T09:59:58;25.00;;;22.80;;
8476;SDS011;4275;42.854;23.222;2024-02-15T10:02:26;25.37;;;23.07;;
8476;SDS011;4275;42.854;23.222;2024-02-15T10:04:53;30.38;;;27.88;;
8476;SDS011;4275;42.854;23.222;2024-02-15T10:07:24;30.00;;;27.60;;
8476;SDS011;4275;42.854;23.222;2024-02-15T10:09:52;25.77;;;23.40;;
8476;SDS011;4275;42.854;23.222;2024-02-15T10:12:19;24.80;;;22.60;;
8476;SDS011;4275;42.854;23.222;2024-02-15T10:14:48;28.50;;;26.10;;
8476;SDS011;4275;42.854;23.222;2024-02-15T10:17:17;29.25;;;26.90;;
8476;SDS011;4275;42.854;23.222;2024-02-15T10:19:48;25.00;;;22.70;;
8476;SDS011;4275;42.854;23.222;2024-02-15T10:22:30;30.87;;;28.27;;
8476;SDS011;4275;42.854;23.222;2024-02-15T10:25:10;30.38;;;27.77;;
8476;SDS011;4275;42.854;23.222;2024-02-15T10:27:38;26.70;;;24.30;;
8476;SDS011;4275;42.854;23.222;2024-02-15T10:30:13;25.87;;;23.47;;
8476;SDS011;4275;42.854;23.222;2024-02-15T10:32:41;31.73;;;29.20;;
8476;SDS011;4275;42.854;23.222;2024-02-15T10:35:09;30.57;;;28.07;;
8476;SDS011;4275;42.854;23.222;2024-02-15T10:37:42;25.23;;;22.92;;
8476;SDS011;4275;42.854;23.222;2024-02-15T10:40:09;24.85;;;22.55;;
8476;SDS011;4275;42.854;23.222;2024-02-15T10:42:38;27.25;;;24.85;;
8476;SDS011;4275;42.854;23.222;2024-02-15T10:45:08;28.23;;;25.80;;
8476;SDS011;4275;42.854;23.222;2024-02-15T10:47:36;26.57;;;24.07;;
8476;SDS011;4275;42.854;23.222;2024-02-15T10:50:05;25.60;;;23.20;;
8476;SDS011;4275;42.854;23.222;2024-02-15T10:52:33;27.27;;;24.87;;
8476;SDS011;4275;42.854;23.222;2024-02-15T10:55:12;29.48;;;26.98;;
8476;SDS011;4275;42.854;23.222;2024-02-15T10:57:42;25.08;;;22.75;;
8476;SDS011;4275;42.854;23.222;2024-02-15T11:00:15;26.98;;;24.48;;
8476;SDS011;4275;42.854;23.222;2024-02-15T11:02:54;29.83;;;27.23;;
8476;SDS011;4275;42.854;23.222;2024-02-15T11:05:27;32.73;;;29.93;;
8476;SDS011;4275;42.854;23.222;2024-02-15T11:07:59;26.88;;;24.40;;
8476;SDS011;4275;42.854;23.222;2024-02-15T11:10:30;30.10;;;27.50;;
8476;SDS011;4275;42.854;23.222;2024-02-15T11:12:58;32.30;;;29.60;;
8476;SDS011;4275;42.854;23.222;2024-02-15T11:18:42;26.90;;;24.40;;
8476;SDS011;4275;42.854;23.222;2024-02-15T11:21:11;32.13;;;29.42;;
8476;SDS011;4275;42.854;23.222;2024-02-15T11:23:38;34.97;;;32.08;;
8476;SDS011;4275;42.854;23.222;2024-02-15T11:26:10;27.92;;;25.42;;
8476;SDS011;4275;42.854;23.222;2024-02-15T11:32:37;34.20;;;31.40;;
8476;SDS011;4275;42.854;23.222;2024-02-15T11:35:05;25.52;;;23.15;;
8476;SDS011;4275;42.854;23.222;2024-02-15T11:37:51;27.30;;;24.80;;
8476;SDS011;4275;42.854;23.222;2024-02-15T11:40:19;32.55;;;29.85;;
8476;SDS011;4275;42.854;23.222;2024-02-15T11:42:50;38.03;;;34.92;;
8476;SDS011;4275;42.854;23.222;2024-02-15T11:45:18;38.13;;;35.03;;
8476;SDS011;4275;42.854;23.222;2024-02-15T11:47:47;36.67;;;33.67;;
8476;SDS011;4275;42.854;23.222;2024-02-15T11:50:15;36.83;;;33.83;;
8476;SDS011;4275;42.854;23.222;2024-02-15T11:52:43;35.28;;;32.40;;
8476;SDS011;4275;42.854;23.222;2024-02-15T11:55:11;35.22;;;32.35;;
8476;SDS011;4275;42.854;23.222;2024-02-15T11:57:39;32.92;;;30.23;;
8476;SDS011;4275;42.854;23.222;2024-02-15T12:00:23;32.50;;;29.80;;
8476;SDS011;4275;42.854;23.222;2024-02-15T12:03:08;33.90;;;31.10;;
8476;SDS011;4275;42.854;23.222;2024-02-15T12:05:53;32.97;;;30.27;;
8476;SDS011;4275;42.854;23.222;2024-02-15T12:08:46;37.65;;;34.42;;
8476;SDS011;4275;42.854;23.222;2024-02-15T12:11:32;36.03;;;33.13;;
8476;SDS011;4275;42.854;23.222;2024-02-15T12:14:16;37.50;;;34.50;;
8476;SDS011;4275;42.854;23.222;2024-02-15T12:17:02;36.15;;;33.25;;
8476;SDS011;4275;42.854;23.222;2024-02-15T12:19:48;43.55;;;40.25;;
8476;SDS011;4275;42.854;23.222;2024-02-15T12:22:17;35.78;;;32.88;;
8476;SDS011;4275;42.854;23.222;2024-02-15T12:24:52;34.53;;;31.83;;
8476;SDS011;4275;42.854;23.222;2024-02-15T12:27:20;34.63;;;31.83;;
8476;SDS011;4275;42.854;23.222;2024-02-15T12:29:52;36.28;;;33.38;;
8476;SDS011;4275;42.854;23.222;2024-02-15T12:32:22;33.22;;;30.42;;
8476;SDS011;4275;42.854;23.222;2024-02-15T12:34:49;26.98;;;24.58;;
8476;SDS011;4275;42.854;23.222;2024-02-15T12:37:17;33.40;;;30.70;;
8476;SDS011;4275;42.854;23.222;2024-02-15T12:39:46;31.42;;;28.83;;
8476;SDS011;4275;42.854;23.222;2024-02-15T12:42:14;26.15;;;23.85;;
8476;SDS011;4275;42.854;23.222;2024-02-15T12:44:44;27.17;;;24.88;;
8476;SDS011;4275;42.854;23.222;2024-02-15T12:47:19;31.17;;;28.67;;
8476;SDS011;4275;42.854;23.222;2024-02-15T12:49:48;36.50;;;33.70;;
8476;SDS011;4275;42.854;23.222;2024-02-15T12:52:36;27.70;;;25.30;;
8476;SDS011;4275;42.854;23.222;2024-02-15T12:58:25;36.25;;;33.40;;
8476;SDS011;4275;42.854;23.222;2024-02-15T13:00:54;27.85;;;25.55;;
8476;SDS011;4275;42.854;23.222;2024-02-15T13:03:23;34.35;;;31.52;;
8476;SDS011;4275;42.854;23.222;2024-02-15T13:05:52;33.00;;;30.50;;
8476;SDS011;4275;42.854;23.222;2024-02-15T13:11:27;27.33;;;25.05;;
8476;SDS011;4275;42.854;23.222;2024-02-15T13:13:54;31.23;;;28.73;;
8476;SDS011;4275;42.854;23.222;2024-02-15T13:16:22;33.00;;;30.40;;
8476;SDS011;4275;42.854;23.222;2024-02-15T13:18:49;26.88;;;24.58;;
8476;SDS011;4275;42.854;23.222;2024-02-15T13:21:18;27.60;;;25.25;;
8476;SDS011;4275;42.854;23.222;2024-02-15T13:23:45;33.13;;;30.52;;
8476;SDS011;4275;42.854;23.222;2024-02-15T13:26:13;33.85;;;31.20;;
8476;SDS011;4275;42.854;23.222;2024-02-15T13:28:40;27.58;;;25.08;;
8476;SDS011;4275;42.854;23.222;2024-02-15T13:31:06;34.40;;;31.70;;
8476;SDS011;4275;42.854;23.222;2024-02-15T13:33:33;35.00;;;32.30;;
8476;SDS011;4275;42.854;23.222;2024-02-15T13:36:01;33.88;;;31.13;;
8476;SDS011;4275;42.854;23.222;2024-02-15T13:38:30;27.38;;;24.98;;
8476;SDS011;4275;42.854;23.222;2024-02-15T13:40:57;27.08;;;24.70;;
8476;SDS011;4275;42.854;23.222;2024-02-15T13:43:28;26.60;;;24.30;;
8476;SDS011;4275;42.854;23.222;2024-02-15T13:45:56;26.30;;;24.10;;
8476;SDS011;4275;42.854;23.222;2024-02-15T13:48:22;26.90;;;24.60;;
8476;SDS011;4275;42.854;23.222;2024-02-15T13:50:51;25.90;;;23.70;;
8476;SDS011;4275;42.854;23.222;2024-02-15T13:53:19;26.90;;;24.60;;
8476;SDS011;4275;42.854;23.222;2024-02-15T13:55:47;25.95;;;23.65;;
8476;SDS011;4275;42.854;23.222;2024-02-15T13:58:17;25.20;;;23.10;;
8476;SDS011;4275;42.854;23.222;2024-02-15T14:00:44;25.23;;;23.13;;
8476;SDS011;4275;42.854;23.222;2024-02-15T14:03:13;27.02;;;24.75;;
8476;SDS011;4275;42.854;23.222;2024-02-15T14:05:40;26.13;;;24.13;;
8476;SDS011;4275;42.854;23.222;2024-02-15T14:08:07;24.25;;;22.25;;
8476;SDS011;4275;42.854;23.222;2024-02-15T14:10:36;30.05;;;27.65;;
8476;SDS011;4275;42.854;23.222;2024-02-15T14:13:04;25.42;;;23.23;;
8476;SDS011;4275;42.854;23.222;2024-02-15T14:15:33;24.95;;;22.95;;
8476;SDS011;4275;42.854;23.222;2024-02-15T14:18:02;27.45;;;25.25;;
8476;SDS011;4275;42.854;23.222;2024-02-15T14:20:30;27.20;;;25.00;;
8476;SDS011;4275;42.854;23.222;2024-02-15T14:22:57;24.02;;;22.13;;
8476;SDS011;4275;42.854;23.222;2024-02-15T14:25:30;26.60;;;24.70;;
8476;SDS011;4275;42.854;23.222;2024-02-15T14:27:57;28.80;;;26.70;;
8476;SDS011;4275;42.854;23.222;2024-02-15T14:30:26;25.70;;;23.70;;
8476;SDS011;4275;42.854;23.222;2024-02-15T14:33:10;25.27;;;23.27;;
8476;SDS011;4275;42.854;23.222;2024-02-15T14:35:40;30.88;;;28.67;;
8476;SDS011;4275;42.854;23.222;2024-02-15T14:38:08;30.30;;;28.05;;
8476;SDS011;4275;42.854;23.222;2024-02-15T14:43:57;31.80;;;29.60;;
8476;SDS011;4275;42.854;23.222;2024-02-15T14:46:26;34.60;;;32.13;;
8476;SDS011;4275;42.854;23.222;2024-02-15T14:48:54;25.48;;;23.52;;
8476;SDS011;4275;42.854;23.222;2024-02-15T14:51:22;25.10;;;23.20;;
8476;SDS011;4275;42.854;23.222;2024-02-15T14:53:50;32.75;;;30.55;;
8476;SDS011;4275;42.854;23.222;2024-02-15T14:56:17;32.35;;;30.25;;
8476;SDS011;4275;42.854;23.222;2024-02-15T14:58:44;25.42;;;23.63;;
8476;SDS011;4275;42.854;23.222;2024-02-15T15:01:12;24.25;;;22.35;;
8476;SDS011;4275;42.854;23.222;2024-02-15T15:03:41;30.20;;;28.20;;
8476;SDS011;4275;42.854;23.222;2024-02-15T15:06:08;31.67;;;29.58;;
8476;SDS011;4275;42.854;23.222;2024-02-15T15:08:56;24.88;;;23.15;;
8476;SDS011;4275;42.854;23.222;2024-02-15T15:11:40;31.52;;;29.52;;
8476;SDS011;4275;42.854;23.222;2024-02-15T15:14:25;31.30;;;29.20;;
8476;SDS011;4275;42.854;23.222;2024-02-15T15:16:52;26.57;;;24.77;;
8476;SDS011;4275;42.854;23.222;2024-02-15T15:19:21;25.50;;;23.80;;
8476;SDS011;4275;42.854;23.222;2024-02-15T15:21:48;30.87;;;28.87;;
8476;SDS011;4275;42.854;23.222;2024-02-15T15:24:15;33.10;;;30.90;;
8476;SDS011;4275;42.854;23.222;2024-02-15T15:26:41;24.33;;;22.53;;
8476;SDS011;4275;42.854;23.222;2024-02-15T15:29:08;24.47;;;22.77;;
8476;SDS011;4275;42.854;23.222;2024-02-15T15:31:36;30.80;;;28.70;;
8476;SDS011;4275;42.854;23.222;2024-02-15T15:34:03;31.80;;;29.60;;
8476;SDS011;4275;42.854;23.222;2024-02-15T15:36:33;24.10;;;22.30;;
8476;SDS011;4275;42.854;23.222;2024-02-15T15:39:00;24.20;;;22.50;;
8476;SDS011;4275;42.854;23.222;2024-02-15T15:41:31;24.17;;;22.47;;
8476;SDS011;4275;42.854;23.222;2024-02-15T15:43:57;23.90;;;22.10;;
8476;SDS011;4275;42.854;23.222;2024-02-15T15:46:23;24.33;;;22.53;;
8476;SDS011;4275;42.854;23.222;2024-02-15T15:48:50;22.93;;;21.13;;
8476;SDS011;4275;42.854;23.222;2024-02-15T15:51:18;23.40;;;21.70;;
8476;SDS011;4275;42.854;23.222;2024-02-15T15:53:46;23.30;;;21.60;;
8476;SDS011;4275;42.854;23.222;2024-02-15T15:56:14;23.00;;;21.37;;
8476;SDS011;4275;42.854;23.222;2024-02-15T15:58:42;23.10;;;21.40;;
8476;SDS011;4275;42.854;23.222;2024-02-15T16:01:10;23.00;;;21.40;;
8476;SDS011;4275;42.854;23.222;2024-02-15T16:03:37;22.10;;;20.60;;
8476;SDS011;4275;42.854;23.222;2024-02-15T16:06:05;22.97;;;21.37;;
8476;SDS011;4275;42.854;23.222;2024-02-15T16:08:32;23.13;;;21.47;;
8476;SDS011;4275;42.854;23.222;2024-02-15T16:11:01;23.40;;;21.70;;
8476;SDS011;4275;42.854;23.222;2024-02-15T16:13:31;23.47;;;21.77;;
8476;SDS011;4275;42.854;23.222;2024-02-15T16:15:59;22.93;;;21.33;;
8476;SDS011;4275;42.854;23.222;2024-02-15T16:18:27;22.80;;;21.20;;
8476;SDS011;4275;42.854;23.222;2024-02-15T16:20:54;23.30;;;21.70;;
8476;SDS011;4275;42.854;23.222;2024-02-15T16:23:21;23.63;;;22.03;;
8476;SDS011;4275;42.854;23.222;2024-02-15T16:25:48;21.47;;;19.97;;
8476;SDS011;4275;42.854;23.222;2024-02-15T16:28:17;21.77;;;20.27;;
8476;SDS011;4275;42.854;23.222;2024-02-15T16:30:44;22.00;;;20.50;;
8476;SDS011;4275;42.854;23.222;2024-02-15T16:33:11;21.03;;;19.57;;
8476;SDS011;4275;42.854;23.222;2024-02-15T16:35:38;20.63;;;19.23;;
8476;SDS011;4275;42.854;23.222;2024-02-15T16:38:05;21.07;;;19.67;;
8476;SDS011;4275;42.854;23.222;2024-02-15T16:40:34;22.60;;;21.10;;
8476;SDS011;4275;42.854;23.222;2024-02-15T16:43:01;22.60;;;21.10;;
8476;SDS011;4275;42.854;23.222;2024-02-15T16:45:31;20.60;;;19.20;;
8476;SDS011;4275;42.854;23.222;2024-02-15T16:47:58;20.70;;;19.30;;
8476;SDS011;4275;42.854;23.222;2024-02-15T16:50:27;20.40;;;19.10;;
8476;SDS011;4275;42.854;23.222;2024-02-15T16:52:54;21.47;;;20.07;;
8476;SDS011;4275;42.854;23.222;2024-02-15T16:55:21;22.23;;;20.83;;
8476;SDS011;4275;42.854;23.222;2024-02-15T16:57:54;20.40;;;19.10;;
8476;SDS011;4275;42.854;23.222;2024-02-15T17:00:25;20.40;;;19.10;;
8476;SDS011;4275;42.854;23.222;2024-02-15T17:02:55;20.50;;;19.10;;
8476;SDS011;4275;42.854;23.222;2024-02-15T17:05:22;21.60;;;20.20;;
8476;SDS011;4275;42.854;23.222;2024-02-15T17:07:49;21.20;;;19.80;;
8476;SDS011;4275;42.854;23.222;2024-02-15T17:10:16;21.20;;;19.90;;
8476;SDS011;4275;42.854;23.222;2024-02-15T17:12:43;20.47;;;19.17;;
8476;SDS011;4275;42.854;23.222;2024-02-15T17:15:10;20.23;;;19.03;;
8476;SDS011;4275;42.854;23.222;2024-02-15T17:17:37;20.30;;;19.10;;
8476;SDS011;4275;42.854;23.222;2024-02-15T17:20:06;19.23;;;18.00;;
8476;SDS011;4275;42.854;23.222;2024-02-15T17:22:39;17.97;;;16.87;;
8476;SDS011;4275;42.854;23.222;2024-02-15T17:25:07;17.50;;;16.50;;
8476;SDS011;4275;42.854;23.222;2024-02-15T17:27:36;17.33;;;16.43;;
8476;SDS011;4275;42.854;23.222;2024-02-15T17:30:05;18.83;;;17.73;;
8476;SDS011;4275;42.854;23.222;2024-02-15T17:32:36;19.00;;;17.80;;
8476;SDS011;4275;42.854;23.222;2024-02-15T17:35:06;19.30;;;18.10;;
8476;SDS011;4275;42.854;23.222;2024-02-15T17:37:37;19.20;;;18.00;;
8476;SDS011;4275;42.854;23.222;2024-02-15T17:40:05;19.80;;;18.60;;
8476;SDS011;4275;42.854;23.222;2024-02-15T17:42:36;20.27;;;19.07;;
8476;SDS011;4275;42.854;23.222;2024-02-15T17:45:04;19.97;;;18.77;;
8476;SDS011;4275;42.854;23.222;2024-02-15T17:47:31;19.50;;;18.30;;
8476;SDS011;4275;42.854;23.222;2024-02-15T17:49:58;20.00;;;18.80;;
8476;SDS011;4275;42.854;23.222;2024-02-15T17:52:26;19.80;;;18.50;;
8476;SDS011;4275;42.854;23.222;2024-02-15T17:54:53;19.70;;;18.50;;
8476;SDS011;4275;42.854;23.222;2024-02-15T17:57:20;20.10;;;18.90;;
8476;SDS011;4275;42.854;23.222;2024-02-15T17:59:47;19.27;;;18.17;;
8476;SDS011;4275;42.854;23.222;2024-02-15T18:02:14;20.03;;;18.83;;
8476;SDS011;4275;42.854;23.222;2024-02-15T18:04:41;21.10;;;19.80;;
8476;SDS011;4275;42.854;23.222;2024-02-15T18:07:08;21.00;;;19.70;;
8476;SDS011;4275;42.854;23.222;2024-02-15T18:09:37;21.57;;;20.27;;
8476;SDS011;4275;42.854;23.222;2024-02-15T18:12:05;21.67;;;20.33;;
8476;SDS011;4275;42.854;23.222;2024-02-15T18:14:33;21.27;;;19.97;;
8476;SDS011;4275;42.854;23.222;2024-02-15T18:17:00;21.47;;;20.17;;
8476;SDS011;4275;42.854;23.222;2024-02-15T18:19:27;20.87;;;19.57;;
8476;SDS011;4275;42.854;23.222;2024-02-15T18:21:54;20.63;;;19.33;;
8476;SDS011;4275;42.854;23.222;2024-02-15T18:24:21;20.37;;;19.17;;
8476;SDS011;4275;42.854;23.222;2024-02-15T18:26:50;20.40;;;19.20;;
8476;SDS011;4275;42.854;23.222;2024-02-15T18:29:20;20.17;;;18.97;;
8476;SDS011;4275;42.854;23.222;2024-02-15T18:31:46;20.00;;;18.80;;
8476;SDS011;4275;42.854;23.222;2024-02-15T18:34:13;19.27;;;18.07;;
8476;SDS011;4275;42.854;23.222;2024-02-15T18:36:40;19.37;;;18.17;;
8476;SDS011;4275;42.854;23.222;2024-02-15T18:39:08;18.60;;;17.50;;
8476;SDS011;4275;42.854;23.222;2024-02-15T18:41:35;18.10;;;17.10;;
8476;SDS011;4275;42.854;23.222;2024-02-15T18:44:05;17.87;;;16.87;;
8476;SDS011;4275;42.854;23.222;2024-02-15T18:46:50;17.50;;;16.50;;
8476;SDS011;4275;42.854;23.222;2024-02-15T18:49:17;16.80;;;15.90;;
8476;SDS011;4275;42.854;23.222;2024-02-15T18:51:44;16.97;;;16.07;;
8476;SDS011;4275;42.854;23.222;2024-02-15T18:54:11;16.20;;;15.40;;
8476;SDS011;4275;42.854;23.222;2024-02-15T18:56:39;16.20;;;15.40;;
8476;SDS011;4275;42.854;23.222;2024-02-15T18:59:08;15.80;;;15.00;;
8476;SDS011;4275;42.854;23.222;2024-02-15T19:01:35;16.20;;;15.40;;
8476;SDS011;4275;42.854;23.222;2024-02-15T19:04:02;16.23;;;15.43;;
8476;SDS011;4275;42.854;23.222;2024-02-15T19:06:29;16.00;;;15.20;;
8476;SDS011;4275;42.854;23.222;2024-02-15T19:09:05;16.07;;;15.27;;